createdAt,value
2022-07-28T00:03:17.853Z,1.80
2022-07-28T00:13:20.846Z,1.90
2022-07-28T00:23:37.581Z,2.05
2022-07-28T00:33:43.340Z,1.85
2022-07-28T00:43:49.004Z,2.22
2022-07-28T00:53:52.725Z,2.08
2022-07-28T01:04:00.583Z,2.25
2022-07-28T01:14:11.447Z,1.90
2022-07-28T01:24:25.040Z,2.10
2022-07-28T01:34:34.448Z,2.58
2022-07-28T01:44:41.608Z,2.70
2022-07-28T01:54:47.670Z,3.00
2022-07-28T02:04:53.792Z,2.55
2022-07-28T02:14:59.491Z,3.10
2022-07-28T02:25:03.083Z,2.95
2022-07-28T02:35:12.312Z,3.08
2022-07-28T02:45:17.870Z,3.35
2022-07-28T02:55:22.483Z,3.25
2022-07-28T03:05:26.825Z,3.13
2022-07-28T03:15:32.127Z,3.40
2022-07-28T03:25:41.122Z,2.88
2022-07-28T03:35:50.652Z,3.17
2022-07-28T03:45:53.848Z,3.25
2022-07-28T03:55:58.657Z,2.90
2022-07-28T04:06:01.724Z,3.67
2022-07-28T04:16:07.217Z,3.03
2022-07-28T04:26:10.541Z,3.40
2022-07-28T04:36:14.875Z,3.38
2022-07-28T04:46:17.948Z,3.47
2022-07-28T04:56:22.299Z,3.58
2022-07-28T05:06:25.290Z,3.63
2022-07-28T05:16:29.682Z,3.03
2022-07-28T05:26:33.170Z,3.70
2022-07-28T05:36:38.273Z,3.17
2022-07-28T05:56:50.304Z,3.17
2022-07-28T06:06:53.459Z,3.20
2022-07-28T06:16:58.094Z,3.15
2022-07-28T06:27:02.865Z,3.10
2022-07-28T06:37:07.216Z,3.42
2022-07-28T06:47:10.421Z,2.60
2022-07-28T06:57:14.801Z,2.50
2022-07-28T07:07:19.868Z,3.00
2022-07-28T07:17:24.506Z,2.80
2022-07-28T07:27:30.042Z,3.10
2022-07-28T07:37:34.946Z,2.38
2022-07-28T07:47:38.131Z,2.90
2022-07-28T07:57:42.694Z,2.45
2022-07-28T08:07:49.037Z,2.08
2022-07-28T08:18:00.326Z,1.75
2022-07-28T08:28:05.218Z,2.38
2022-07-28T08:38:15.334Z,2.38
2022-07-28T08:48:23.664Z,2.22
2022-07-28T08:58:33.698Z,1.83
2022-07-28T09:08:38.650Z,2.35
2022-07-28T09:18:47.426Z,1.77
2022-07-28T09:28:59.037Z,1.90
2022-07-28T09:39:04.560Z,2.78
2022-07-28T09:49:11.161Z,2.20
2022-07-28T09:59:24.765Z,2.97
2022-07-28T10:09:29.431Z,1.73
2022-07-28T10:19:40.506Z,2.17
2022-07-28T10:29:45.600Z,1.50
2022-07-28T10:39:57.128Z,1.50
2022-07-28T10:50:01.373Z,1.52
2022-07-28T11:00:25.762Z,1.98
2022-07-28T11:10:31.135Z,1.73
2022-07-28T11:21:16.597Z,1.95
2022-07-28T11:31:19.851Z,1.85
2022-07-28T11:41:31.404Z,1.47
2022-07-28T11:51:51.525Z,1.50
2022-07-28T12:02:09.292Z,1.67
2022-07-28T12:12:16.267Z,1.40
2022-07-28T12:22:23.880Z,1.75
2022-07-28T12:32:33.253Z,1.65
2022-07-28T12:42:41.072Z,1.13
2022-07-28T12:52:45.736Z,1.48
2022-07-28T13:03:00.787Z,1.80
2022-07-28T13:13:06.447Z,1.40
2022-07-28T13:23:11.849Z,1.33
2022-07-28T13:33:21.751Z,1.42
2022-07-28T13:43:35.964Z,1.40
2022-07-28T13:53:40.105Z,1.40
2022-07-28T14:03:56.700Z,1.50
2022-07-28T14:14:01.134Z,1.42
2022-07-28T14:34:12.180Z,1.42
2022-07-28T14:44:23.991Z,1.75
2022-07-28T14:54:27.822Z,1.40
2022-07-28T15:04:38.411Z,1.30
2022-07-28T15:14:41.808Z,1.38
2022-07-28T15:24:51.526Z,1.38
2022-07-28T15:34:59.823Z,1.70
2022-07-28T15:45:07.878Z,1.30
2022-07-28T15:55:17.561Z,1.42
2022-07-28T16:05:22.173Z,1.52
2022-07-28T16:15:32.317Z,1.65
2022-07-28T16:25:45.192Z,1.30
2022-07-28T16:35:52.458Z,1.60
2022-07-28T16:46:01.424Z,1.40
2022-07-28T16:56:08.038Z,1.48
2022-07-28T17:06:13.015Z,1.45
2022-07-28T17:16:22.344Z,1.65
2022-07-28T17:47:21.015Z,1.80
2022-07-28T17:57:24.054Z,1.50
2022-07-28T18:07:49.159Z,1.58
2022-07-28T18:17:55.907Z,1.50
2022-07-28T18:28:00.996Z,1.77
2022-07-28T18:38:04.873Z,1.30
2022-07-28T18:58:15.150Z,1.55
2022-07-28T19:08:22.201Z,1.75
2022-07-28T19:18:27.892Z,1.50
2022-07-28T19:28:32.315Z,1.50
2022-07-28T19:38:35.356Z,2.28
2022-07-28T19:48:39.847Z,1.83
2022-07-28T19:58:42.835Z,2.00
2022-07-28T20:08:47.260Z,1.77
2022-07-28T20:28:54.703Z,2.60
2022-07-28T20:38:57.702Z,1.92
2022-07-28T20:49:02.317Z,2.03
2022-07-28T20:59:07.030Z,2.13
2022-07-28T21:09:11.678Z,1.90
2022-07-28T21:19:14.605Z,2.13
2022-07-28T21:39:21.484Z,1.83
2022-07-28T21:49:28.635Z,1.85
2022-07-28T21:59:31.634Z,2.15
2022-07-28T22:09:38.002Z,1.95
2022-07-28T22:19:41.234Z,2.05
2022-07-28T22:29:51.950Z,1.55
2022-07-28T22:39:55.611Z,1.77
2022-07-28T22:50:00.165Z,1.95
2022-07-28T23:10:11.272Z,1.80
2022-07-28T23:20:14.660Z,1.60
2022-07-28T23:30:19.407Z,1.63
2022-07-28T23:40:22.722Z,2.28
2022-07-28T23:50:28.122Z,1.75
